createdAt,value
2022-10-02T00:00:03.387Z,0.00
2022-10-02T00:01:03.379Z,0.00
2022-10-02T00:02:03.378Z,0.00
2022-10-02T00:03:03.354Z,0.00
2022-10-02T00:04:03.426Z,0.00
2022-10-02T00:05:03.346Z,0.00
2022-10-02T00:06:03.402Z,0.00
2022-10-02T00:07:03.352Z,0.00
2022-10-02T00:08:03.303Z,0.00
2022-10-02T00:09:03.308Z,0.00
2022-10-02T00:10:03.320Z,0.00
2022-10-02T00:11:03.268Z,0.00
2022-10-02T00:12:03.272Z,0.00
2022-10-02T00:13:03.245Z,0.00
2022-10-02T00:14:03.241Z,0.00
2022-10-02T00:15:03.230Z,0.00
2022-10-02T00:16:03.286Z,0.00
2022-10-02T00:17:03.223Z,0.00
2022-10-02T00:18:03.199Z,0.00
2022-10-02T00:19:03.183Z,0.00
2022-10-02T00:20:03.199Z,0.00
2022-10-02T00:21:03.161Z,0.00
2022-10-02T00:22:03.154Z,0.00
2022-10-02T00:23:03.138Z,0.00
2022-10-02T00:24:03.140Z,0.00
2022-10-02T00:25:03.119Z,0.00
2022-10-02T00:26:03.152Z,0.00
2022-10-02T00:27:03.106Z,0.00
2022-10-02T00:28:03.187Z,0.00
2022-10-02T00:29:03.082Z,0.00
2022-10-02T00:30:03.084Z,0.00
2022-10-02T00:31:03.068Z,0.00
2022-10-02T00:32:03.173Z,0.00
2022-10-02T00:33:03.044Z,0.00
2022-10-02T00:34:03.031Z,0.00
2022-10-02T00:35:03.026Z,0.00
2022-10-02T00:36:03.041Z,0.00
2022-10-02T00:37:03.017Z,0.00
2022-10-02T00:38:02.988Z,0.00
2022-10-02T00:39:02.961Z,0.00
2022-10-02T00:40:02.993Z,0.00
2022-10-02T00:41:02.948Z,0.00
2022-10-02T00:42:02.950Z,0.00
2022-10-02T00:43:02.942Z,0.00
2022-10-02T00:44:02.919Z,0.00
2022-10-02T00:45:02.894Z,0.00
2022-10-02T00:46:02.987Z,0.00
2022-10-02T00:47:02.874Z,0.00
2022-10-02T00:48:02.900Z,0.00
2022-10-02T00:49:02.859Z,0.00
2022-10-02T00:50:02.889Z,0.00
2022-10-02T00:51:02.833Z,0.00
2022-10-02T00:52:02.857Z,0.00
2022-10-02T00:53:02.836Z,0.00
2022-10-02T00:54:02.830Z,0.00
2022-10-02T00:55:02.804Z,0.00
2022-10-02T00:56:02.779Z,0.00
2022-10-02T00:57:02.781Z,0.00
2022-10-02T00:58:02.772Z,0.00
2022-10-02T00:59:02.748Z,0.00
2022-10-02T01:00:02.771Z,0.00
2022-10-02T01:01:02.776Z,0.00
2022-10-02T01:02:02.796Z,0.00
2022-10-02T01:03:02.711Z,0.00
2022-10-02T01:04:02.711Z,0.00
2022-10-02T01:05:02.688Z,0.00
2022-10-02T01:06:02.716Z,0.00
2022-10-02T01:07:02.675Z,0.00
2022-10-02T01:08:02.657Z,0.00
2022-10-02T01:09:02.670Z,0.00
2022-10-02T01:10:02.647Z,0.00
2022-10-02T01:11:02.641Z,0.00
2022-10-02T01:12:02.644Z,0.00
2022-10-02T01:13:02.604Z,0.00
2022-10-02T01:14:02.629Z,0.00
2022-10-02T01:15:02.607Z,0.00
2022-10-02T01:16:02.645Z,0.00
2022-10-02T01:17:02.571Z,0.00
2022-10-02T01:18:02.588Z,0.00
2022-10-02T01:19:02.551Z,0.00
2022-10-02T01:20:02.538Z,0.00
2022-10-02T01:21:02.527Z,0.00
2022-10-02T01:22:02.515Z,0.00
2022-10-02T01:23:02.488Z,0.00
2022-10-02T01:24:02.519Z,0.00
2022-10-02T01:25:02.481Z,0.00
2022-10-02T01:26:02.475Z,0.00
2022-10-02T01:27:02.461Z,0.00
2022-10-02T01:28:02.507Z,0.00
2022-10-02T01:29:02.431Z,0.00
2022-10-02T01:30:02.455Z,0.00
2022-10-02T01:31:02.410Z,0.00
2022-10-02T01:32:02.435Z,0.00
2022-10-02T01:33:02.389Z,0.00
2022-10-02T01:34:02.384Z,0.00
2022-10-02T01:35:02.387Z,0.00
2022-10-02T01:36:02.372Z,0.00
2022-10-02T01:37:02.339Z,0.00
2022-10-02T01:38:02.340Z,0.00
2022-10-02T01:39:02.324Z,0.00
2022-10-02T01:40:02.344Z,0.00
2022-10-02T01:41:02.308Z,0.00
2022-10-02T01:42:02.303Z,0.00
2022-10-02T01:43:02.288Z,0.00
2022-10-02T01:44:02.296Z,0.00
2022-10-02T01:45:02.264Z,0.00
2022-10-02T01:46:02.349Z,0.00
2022-10-02T01:47:02.230Z,0.00
2022-10-02T01:48:02.240Z,0.00
2022-10-02T01:49:02.231Z,0.00
2022-10-02T01:50:02.222Z,0.00
2022-10-02T01:51:02.223Z,0.00
2022-10-02T01:52:02.185Z,0.00
2022-10-02T01:53:02.176Z,0.00
2022-10-02T01:54:02.184Z,0.00
2022-10-02T01:55:02.158Z,0.00
2022-10-02T01:56:02.183Z,0.00
2022-10-02T01:57:02.149Z,0.00
2022-10-02T01:58:02.129Z,0.00
2022-10-02T01:59:02.134Z,0.00
2022-10-02T02:00:02.111Z,0.00
2022-10-02T02:01:02.115Z,0.00
2022-10-02T02:02:02.152Z,0.00
2022-10-02T02:03:02.066Z,0.00
2022-10-02T02:04:02.110Z,0.00
2022-10-02T02:05:02.055Z,0.00
2022-10-02T02:06:02.060Z,0.00
2022-10-02T02:07:02.050Z,0.00
2022-10-02T02:08:02.036Z,0.00
2022-10-02T02:09:02.278Z,0.00
2022-10-02T02:10:02.017Z,0.00
2022-10-02T02:11:01.981Z,0.00
2022-10-02T02:12:02.005Z,0.00
2022-10-02T02:13:01.979Z,0.00
2022-10-02T02:14:01.964Z,0.00
2022-10-02T02:15:01.945Z,0.00
2022-10-02T02:16:01.951Z,0.00
2022-10-02T02:17:01.925Z,0.00
2022-10-02T02:18:01.941Z,0.00
2022-10-02T02:19:01.983Z,0.00
2022-10-02T02:20:01.901Z,0.00
2022-10-02T02:21:01.885Z,0.00
2022-10-02T02:22:01.881Z,0.00
2022-10-02T02:23:01.865Z,0.00
2022-10-02T02:24:01.851Z,0.00
2022-10-02T02:25:01.844Z,0.00
2022-10-02T02:26:01.840Z,0.00
2022-10-02T02:27:01.875Z,0.00
2022-10-02T02:28:01.876Z,0.00
2022-10-02T02:29:01.927Z,0.00
2022-10-02T02:30:01.811Z,0.00
2022-10-02T02:31:01.777Z,0.00
2022-10-02T02:32:01.841Z,0.00
2022-10-02T02:33:01.780Z,0.00
2022-10-02T02:34:01.761Z,0.00
2022-10-02T02:35:01.731Z,0.00
2022-10-02T02:36:01.735Z,0.00
2022-10-02T02:37:01.715Z,0.00
2022-10-02T02:38:01.711Z,0.00
2022-10-02T02:39:01.708Z,0.00
2022-10-02T02:40:01.682Z,0.00
2022-10-02T02:41:01.672Z,0.00
2022-10-02T02:42:01.670Z,0.00
2022-10-02T02:43:01.651Z,0.00
2022-10-02T02:44:01.663Z,0.00
2022-10-02T02:45:01.621Z,0.00
2022-10-02T02:46:01.716Z,0.00
2022-10-02T02:47:01.589Z,0.00
2022-10-02T02:48:01.612Z,0.00
2022-10-02T02:49:01.613Z,0.00
2022-10-02T02:50:01.594Z,0.00
2022-10-02T02:51:01.578Z,0.00
2022-10-02T02:52:01.560Z,0.00
2022-10-02T02:53:01.560Z,0.00
2022-10-02T02:54:01.567Z,0.00
2022-10-02T02:55:01.557Z,0.00
2022-10-02T02:56:01.515Z,0.00
2022-10-02T02:57:01.494Z,0.00
2022-10-02T02:58:01.490Z,0.00
2022-10-02T02:59:01.502Z,0.00
2022-10-02T03:00:01.468Z,0.00
2022-10-02T03:01:01.509Z,0.00
2022-10-02T03:02:01.503Z,0.00
2022-10-02T03:03:01.423Z,0.00
2022-10-02T03:04:01.428Z,0.00
2022-10-02T03:05:01.434Z,0.00
2022-10-02T03:06:01.406Z,0.00
2022-10-02T03:07:01.392Z,0.00
2022-10-02T03:08:01.383Z,0.00
2022-10-02T03:09:01.369Z,0.00
2022-10-02T03:10:01.382Z,0.00
2022-10-02T03:11:01.339Z,0.00
2022-10-02T03:12:01.355Z,0.00
2022-10-02T03:13:01.326Z,0.00
2022-10-02T03:14:01.323Z,0.00
2022-10-02T03:15:01.321Z,0.00
2022-10-02T03:16:01.371Z,0.00
2022-10-02T03:17:01.280Z,0.00
2022-10-02T03:18:01.276Z,0.00
2022-10-02T03:19:01.264Z,0.00
2022-10-02T03:20:01.259Z,0.00
2022-10-02T03:21:01.263Z,0.00
2022-10-02T03:22:01.235Z,0.00
2022-10-02T03:23:01.244Z,0.00
2022-10-02T03:24:01.207Z,0.00
2022-10-02T03:25:01.207Z,0.00
2022-10-02T03:26:01.208Z,0.00
2022-10-02T03:27:01.167Z,0.00
2022-10-02T03:28:01.222Z,0.00
2022-10-02T03:29:01.225Z,0.00
2022-10-02T03:30:01.156Z,0.00
2022-10-02T03:31:01.160Z,0.00
2022-10-02T03:32:01.124Z,0.00
2022-10-02T03:33:01.157Z,0.00
2022-10-02T03:34:01.135Z,0.00
2022-10-02T03:35:01.099Z,0.00
2022-10-02T03:36:01.096Z,0.00
2022-10-02T03:37:01.076Z,0.00
2022-10-02T03:38:01.068Z,0.00
2022-10-02T03:39:23.781Z,0.00
2022-10-02T03:40:01.105Z,0.00
2022-10-02T03:41:01.046Z,0.00
2022-10-02T03:42:01.037Z,0.00
2022-10-02T03:43:01.012Z,0.00
2022-10-02T03:44:01.006Z,0.00
2022-10-02T03:45:01.024Z,0.00
2022-10-02T03:46:01.069Z,0.00
2022-10-02T03:47:00.980Z,0.00
2022-10-02T03:48:00.965Z,0.00
2022-10-02T03:49:00.951Z,0.00
2022-10-02T03:50:00.947Z,0.00
2022-10-02T03:51:00.967Z,0.00
2022-10-02T03:52:00.947Z,0.00
2022-10-02T03:53:00.945Z,0.00
2022-10-02T03:54:00.904Z,0.00
2022-10-02T03:55:00.921Z,0.00
2022-10-02T03:56:00.885Z,0.00
2022-10-02T03:57:00.884Z,0.00
2022-10-02T03:58:00.860Z,0.00
2022-10-02T03:59:00.857Z,0.00
2022-10-02T04:00:00.825Z,0.00
2022-10-02T04:01:00.845Z,0.00
2022-10-02T04:02:00.865Z,0.00
2022-10-02T04:03:00.802Z,0.00
2022-10-02T04:04:00.937Z,0.00
2022-10-02T04:05:00.778Z,0.00
2022-10-02T04:06:00.768Z,0.00
2022-10-02T04:07:00.783Z,0.00
2022-10-02T04:08:00.739Z,0.00
2022-10-02T04:09:00.758Z,0.00
2022-10-02T04:10:00.719Z,0.00
2022-10-02T04:11:00.729Z,0.00
2022-10-02T04:12:00.713Z,0.00
2022-10-02T04:13:00.692Z,0.00
2022-10-02T04:14:00.679Z,0.00
2022-10-02T04:15:00.698Z,0.00
2022-10-02T04:16:00.704Z,0.00
2022-10-02T04:17:00.650Z,0.00
2022-10-02T04:18:00.634Z,0.00
2022-10-02T04:19:00.633Z,0.00
2022-10-02T04:20:00.617Z,0.00
2022-10-02T04:21:00.639Z,0.00
2022-10-02T04:22:00.589Z,0.00
2022-10-02T04:23:00.602Z,0.00
2022-10-02T04:24:00.580Z,0.00
2022-10-02T04:25:00.568Z,0.00
2022-10-02T04:26:00.554Z,0.00
2022-10-02T04:27:00.579Z,0.00
2022-10-02T04:28:00.550Z,0.00
2022-10-02T04:29:00.538Z,0.00
2022-10-02T04:30:00.511Z,0.00
2022-10-02T04:31:00.535Z,0.00
2022-10-02T04:32:00.530Z,0.00
2022-10-02T04:33:00.489Z,0.00
2022-10-02T04:34:00.480Z,0.00
2022-10-02T04:35:00.468Z,0.00
2022-10-02T04:36:00.482Z,0.00
2022-10-02T04:37:00.432Z,0.00
2022-10-02T04:38:00.445Z,0.00
2022-10-02T04:39:00.428Z,0.00
2022-10-02T04:40:00.395Z,0.00
2022-10-02T04:41:00.405Z,0.00
2022-10-02T04:42:00.398Z,0.00
2022-10-02T04:43:00.386Z,0.00
2022-10-02T04:44:00.379Z,0.00
2022-10-02T04:45:00.357Z,0.00
2022-10-02T04:46:00.434Z,0.00
2022-10-02T04:47:00.379Z,0.00
2022-10-02T04:48:00.313Z,0.00
2022-10-02T04:49:00.315Z,0.00
2022-10-02T04:50:00.297Z,0.00
2022-10-02T04:51:00.303Z,0.00
2022-10-02T04:52:00.277Z,0.00
2022-10-02T04:53:00.296Z,0.00
2022-10-02T04:54:00.257Z,0.00
2022-10-02T04:55:00.261Z,0.00
2022-10-02T04:56:00.236Z,0.00
2022-10-02T04:57:00.239Z,0.00
2022-10-02T04:58:00.218Z,0.00
2022-10-02T04:59:00.214Z,0.00
2022-10-02T05:00:00.191Z,0.00
2022-10-02T05:01:00.257Z,0.00
2022-10-02T05:02:00.251Z,0.00
2022-10-02T05:03:00.196Z,0.00
2022-10-02T05:04:03.939Z,0.00
2022-10-02T05:05:00.146Z,0.00
2022-10-02T05:06:00.151Z,0.00
2022-10-02T05:07:00.143Z,0.00
2022-10-02T05:08:00.129Z,0.00
2022-10-02T05:09:00.116Z,0.00
2022-10-02T05:10:00.060Z,1.00
2022-10-02T05:11:00.114Z,0.00
2022-10-02T05:12:00.095Z,0.00
2022-10-02T05:13:00.024Z,1.00
2022-10-02T05:13:59.990Z,1.00
2022-10-02T05:15:00.008Z,9.00
2022-10-02T05:16:00.126Z,8.00
2022-10-02T05:16:59.968Z,5.00
2022-10-02T05:17:59.952Z,4.00
2022-10-02T05:18:59.950Z,2.00
2022-10-02T05:19:59.940Z,3.00
2022-10-02T05:20:59.960Z,5.00
2022-10-02T05:21:59.924Z,2.00
2022-10-02T05:22:59.916Z,7.00
2022-10-02T05:23:59.892Z,4.00
2022-10-02T05:24:59.887Z,5.00
2022-10-02T05:25:59.870Z,7.00
2022-10-02T05:26:59.865Z,8.00
2022-10-02T05:27:59.915Z,19.00
2022-10-02T05:28:59.832Z,23.00
2022-10-02T05:29:59.815Z,11.00
2022-10-02T05:30:59.944Z,14.00
2022-10-02T05:31:59.803Z,17.00
2022-10-02T05:32:59.813Z,18.00
2022-10-02T05:33:59.797Z,25.00
2022-10-02T05:34:59.765Z,26.00
2022-10-02T05:35:59.762Z,39.00
2022-10-02T05:36:59.752Z,45.00
2022-10-02T05:37:59.719Z,39.00
2022-10-02T05:38:59.773Z,24.00
2022-10-02T05:39:59.711Z,22.00
2022-10-02T05:40:59.713Z,35.00
2022-10-02T05:41:59.690Z,37.00
2022-10-02T05:42:59.688Z,33.00
2022-10-02T05:43:59.665Z,26.00
2022-10-02T05:44:59.677Z,31.00
2022-10-02T05:45:59.649Z,54.00
2022-10-02T05:46:59.686Z,57.00
2022-10-02T05:47:59.624Z,50.00
2022-10-02T05:48:59.627Z,66.00
2022-10-02T05:49:59.643Z,65.00
2022-10-02T05:50:59.598Z,59.00
2022-10-02T05:51:59.610Z,61.00
2022-10-02T05:52:59.606Z,49.00
2022-10-02T05:53:59.554Z,70.00
2022-10-02T05:54:59.558Z,108.00
2022-10-02T05:55:59.572Z,99.00
2022-10-02T05:56:59.550Z,63.00
2022-10-02T05:57:59.508Z,47.00
2022-10-02T05:58:59.516Z,77.00
2022-10-02T05:59:59.491Z,89.00
2022-10-02T06:00:59.538Z,104.00
2022-10-02T06:01:59.530Z,125.00
2022-10-02T06:02:59.485Z,130.00
2022-10-02T06:03:59.457Z,166.00
2022-10-02T06:04:59.452Z,186.00
2022-10-02T06:05:59.445Z,145.00
2022-10-02T06:06:59.483Z,133.00
2022-10-02T06:07:59.420Z,144.00
2022-10-02T06:08:59.465Z,178.00
2022-10-02T06:09:59.381Z,174.00
2022-10-02T06:10:59.392Z,195.00
2022-10-02T06:11:59.391Z,186.00
2022-10-02T06:12:59.363Z,187.00
2022-10-02T06:13:59.352Z,187.00
2022-10-02T06:14:59.368Z,172.00
2022-10-02T06:15:59.378Z,174.00
2022-10-02T06:16:59.325Z,162.00
2022-10-02T06:17:59.312Z,101.00
2022-10-02T06:18:59.331Z,130.00
2022-10-02T06:20:03.309Z,171.00
2022-10-02T06:20:59.313Z,191.00
2022-10-02T06:21:59.267Z,171.00
2022-10-02T06:22:59.257Z,149.00
2022-10-02T06:23:59.262Z,294.00
2022-10-02T06:24:59.239Z,244.00
2022-10-02T06:25:59.251Z,165.00
2022-10-02T06:26:59.217Z,305.00
2022-10-02T06:27:59.267Z,468.00
2022-10-02T06:28:59.189Z,374.00
2022-10-02T06:29:59.187Z,343.00
2022-10-02T06:30:59.189Z,479.00
2022-10-02T06:31:59.257Z,614.00
2022-10-02T06:32:59.148Z,658.00
2022-10-02T06:33:59.136Z,779.00
2022-10-02T06:34:59.138Z,596.00
2022-10-02T06:35:59.108Z,405.00
2022-10-02T06:36:59.118Z,461.00
2022-10-02T06:37:59.079Z,469.00
2022-10-02T06:38:59.093Z,502.00
2022-10-02T06:39:59.061Z,556.00
2022-10-02T06:40:59.071Z,419.00
2022-10-02T06:41:59.092Z,419.00
2022-10-02T06:42:59.064Z,617.00
2022-10-02T06:43:59.025Z,632.00
2022-10-02T06:44:59.024Z,599.00
2022-10-02T06:45:59.155Z,587.00
2022-10-02T06:46:59.000Z,418.00
2022-10-02T06:47:58.992Z,458.00
2022-10-02T06:48:58.995Z,769.00
2022-10-02T06:49:58.962Z,609.00
2022-10-02T06:50:58.960Z,491.00
2022-10-02T06:51:58.948Z,567.00
2022-10-02T06:52:58.935Z,489.00
2022-10-02T06:53:58.929Z,959.00
2022-10-02T06:54:58.925Z,542.00
2022-10-02T06:55:58.907Z,551.00
2022-10-02T06:56:58.888Z,438.00
2022-10-02T06:57:58.872Z,746.00
2022-10-02T06:58:58.876Z,790.00
2022-10-02T06:59:58.853Z,704.00
2022-10-02T07:00:58.877Z,435.00
2022-10-02T07:01:58.881Z,507.00
2022-10-02T07:02:58.827Z,771.00
2022-10-02T07:03:58.826Z,903.00
2022-10-02T07:04:58.792Z,991.00
2022-10-02T07:05:58.780Z,1118.00
2022-10-02T07:06:58.869Z,727.00
2022-10-02T07:07:58.765Z,501.00
2022-10-02T07:08:58.761Z,492.00
2022-10-02T07:09:58.789Z,422.00
2022-10-02T07:10:58.726Z,579.00
2022-10-02T07:11:58.712Z,616.00
2022-10-02T07:12:58.709Z,779.00
2022-10-02T07:13:58.681Z,708.00
2022-10-02T07:14:58.777Z,631.00
2022-10-02T07:15:58.689Z,645.00
2022-10-02T07:16:58.685Z,663.00
2022-10-02T07:17:58.721Z,666.00
2022-10-02T07:18:58.669Z,816.00
2022-10-02T07:19:58.635Z,1018.00
2022-10-02T07:20:58.625Z,767.00
2022-10-02T07:21:58.617Z,1047.00
2022-10-02T07:22:58.602Z,1128.00
2022-10-02T07:24:02.190Z,726.00
2022-10-02T07:24:58.584Z,1907.00
2022-10-02T07:25:58.568Z,1275.00
2022-10-02T07:26:58.591Z,1026.00
2022-10-02T07:27:58.568Z,1468.00
2022-10-02T07:28:58.536Z,1513.00
2022-10-02T07:29:58.544Z,1377.00
2022-10-02T07:30:58.533Z,1305.00
2022-10-02T07:31:58.564Z,1640.00
2022-10-02T07:32:58.513Z,1453.00
2022-10-02T07:33:58.468Z,1647.00
2022-10-02T07:34:58.482Z,1727.00
2022-10-02T07:35:58.466Z,1622.00
2022-10-02T07:36:58.445Z,1640.00
2022-10-02T07:37:58.540Z,1494.00
2022-10-02T07:38:58.441Z,1545.00
2022-10-02T07:39:58.409Z,1534.00
2022-10-02T07:41:00.067Z,1722.00
2022-10-02T07:41:58.398Z,1583.00
2022-10-02T07:42:58.413Z,1311.00
2022-10-02T07:43:58.414Z,1345.00
2022-10-02T07:44:58.367Z,1436.00
2022-10-02T07:45:58.392Z,1524.00
2022-10-02T07:46:58.345Z,1360.00
2022-10-02T07:47:58.359Z,1491.00
2022-10-02T07:48:58.316Z,1051.00
2022-10-02T07:49:58.320Z,1313.00
2022-10-02T07:50:58.310Z,1515.00
2022-10-02T07:51:58.293Z,1248.00
2022-10-02T07:52:58.290Z,1489.00
2022-10-02T07:53:58.258Z,1493.00
2022-10-02T07:54:58.290Z,1487.00
2022-10-02T07:55:58.238Z,1604.00
2022-10-02T07:56:58.251Z,1813.00
2022-10-02T07:57:58.228Z,1796.00
2022-10-02T07:58:58.232Z,1912.00
2022-10-02T07:59:58.203Z,1892.00
2022-10-02T08:00:58.206Z,2153.00
2022-10-02T08:01:58.234Z,2253.00
2022-10-02T08:02:58.270Z,2281.00
2022-10-02T08:03:58.160Z,2175.00
2022-10-02T08:04:58.158Z,2107.00
2022-10-02T08:05:58.227Z,2281.00
2022-10-02T08:06:58.116Z,2209.00
2022-10-02T08:07:58.127Z,2186.00
2022-10-02T08:08:58.094Z,2554.00
2022-10-02T08:09:58.095Z,2357.00
2022-10-02T08:10:58.143Z,2333.00
2022-10-02T08:11:58.113Z,2327.00
2022-10-02T08:12:58.071Z,2092.00
2022-10-02T08:13:58.062Z,2348.00
2022-10-02T08:14:58.041Z,2244.00
2022-10-02T08:15:58.098Z,2530.00
2022-10-02T08:16:58.040Z,2209.00
2022-10-02T08:18:10.805Z,2742.00
2022-10-02T08:18:58.004Z,2404.00
2022-10-02T08:19:57.991Z,2434.00
2022-10-02T08:20:58.139Z,1948.00
2022-10-02T08:21:57.999Z,2921.00
2022-10-02T08:22:57.954Z,2710.00
2022-10-02T08:23:57.963Z,1939.00
2022-10-02T08:24:57.992Z,2583.00
2022-10-02T08:25:57.944Z,2666.00
2022-10-02T08:26:57.904Z,2943.00
2022-10-02T08:27:57.962Z,3674.00
2022-10-02T08:28:57.895Z,2500.00
2022-10-02T08:29:57.895Z,3281.00
2022-10-02T08:30:57.862Z,2782.00
2022-10-02T08:31:57.966Z,1782.00
2022-10-02T08:32:57.880Z,3138.00
2022-10-02T08:33:57.834Z,2371.00
2022-10-02T08:34:57.827Z,1477.00
2022-10-02T08:35:57.817Z,2896.00
2022-10-02T08:36:57.803Z,2985.00
2022-10-02T08:37:57.827Z,4297.00
2022-10-02T08:38:57.775Z,2150.00
2022-10-02T08:39:57.780Z,3510.00
2022-10-02T08:40:57.784Z,3637.00
2022-10-02T08:41:57.755Z,3498.00
2022-10-02T08:42:57.738Z,3025.00
2022-10-02T08:43:57.743Z,2970.00
2022-10-02T08:44:57.754Z,4339.00
2022-10-02T08:45:57.735Z,3179.00
2022-10-02T08:46:57.760Z,3465.00
2022-10-02T08:47:57.740Z,3153.00
2022-10-02T08:48:57.679Z,3754.00
2022-10-02T08:49:57.674Z,2471.00
2022-10-02T08:50:57.647Z,3967.00
2022-10-02T08:51:57.635Z,3830.00
2022-10-02T08:52:57.660Z,3064.00
2022-10-02T08:53:57.629Z,2890.00
2022-10-02T08:54:57.596Z,3050.00
2022-10-02T08:55:57.613Z,3146.00
2022-10-02T08:56:57.578Z,2894.00
2022-10-02T08:57:57.566Z,3891.00
2022-10-02T08:58:57.584Z,2667.00
2022-10-02T08:59:57.572Z,1852.00
2022-10-02T09:00:57.606Z,3022.00
2022-10-02T09:01:59.962Z,4275.00
2022-10-02T09:02:57.509Z,3902.00
2022-10-02T09:03:57.556Z,1626.00
2022-10-02T09:04:57.493Z,1440.00
2022-10-02T09:05:57.497Z,3699.00
2022-10-02T09:06:57.468Z,2625.00
2022-10-02T09:07:57.470Z,3689.00
2022-10-02T09:08:57.490Z,2958.00
2022-10-02T09:09:57.473Z,3239.00
2022-10-02T09:10:57.427Z,3070.00
2022-10-02T09:11:57.419Z,1586.00
2022-10-02T09:12:57.410Z,2892.00
2022-10-02T09:13:57.431Z,2808.00
2022-10-02T09:14:59.003Z,3164.00
2022-10-02T09:15:57.440Z,2853.00
2022-10-02T09:16:57.417Z,2426.00
2022-10-02T09:17:57.359Z,2707.00
2022-10-02T09:18:57.390Z,4023.00
2022-10-02T09:19:57.368Z,2042.00
2022-10-02T09:20:57.330Z,1750.00
2022-10-02T09:21:57.323Z,2196.00
2022-10-02T09:22:57.297Z,2684.00
2022-10-02T09:23:57.302Z,4256.00
2022-10-02T09:24:57.289Z,2355.00
2022-10-02T09:25:57.297Z,2996.00
2022-10-02T09:26:57.261Z,2472.00
2022-10-02T09:27:57.337Z,2830.00
2022-10-02T09:28:57.262Z,3369.00
2022-10-02T09:29:57.240Z,2193.00
2022-10-02T09:30:57.231Z,2594.00
2022-10-02T09:31:57.248Z,2395.00
2022-10-02T09:32:57.192Z,3578.00
2022-10-02T09:33:57.194Z,6375.00
2022-10-02T09:34:57.182Z,4775.00
2022-10-02T09:35:57.188Z,4713.00
2022-10-02T09:36:57.169Z,4174.00
2022-10-02T09:37:57.158Z,4739.00
2022-10-02T09:38:57.127Z,4555.00
2022-10-02T09:39:57.124Z,3784.00
2022-10-02T09:40:57.114Z,2704.00
2022-10-02T09:41:57.135Z,2445.00
2022-10-02T09:42:57.092Z,1911.00
2022-10-02T09:43:57.086Z,2780.00
2022-10-02T09:45:01.221Z,2517.00
2022-10-02T09:45:57.149Z,5060.00
2022-10-02T09:46:57.059Z,2866.00
2022-10-02T09:47:57.061Z,2854.00
2022-10-02T09:48:57.019Z,3458.00
2022-10-02T09:49:57.015Z,2345.00
2022-10-02T09:50:56.993Z,2414.00
2022-10-02T09:51:56.996Z,2547.00
2022-10-02T09:52:57.003Z,1673.00
2022-10-02T09:53:56.983Z,1226.00
2022-10-02T09:54:56.950Z,1184.00
2022-10-02T09:55:56.959Z,1639.00
2022-10-02T09:56:56.927Z,2131.00
2022-10-02T09:57:56.960Z,2249.00
2022-10-02T09:58:56.908Z,2458.00
2022-10-02T09:59:56.898Z,2700.00
2022-10-02T10:00:56.959Z,1435.00
2022-10-02T10:01:56.944Z,5876.00
2022-10-02T10:02:56.873Z,12123.00
2022-10-02T10:03:56.882Z,14245.00
2022-10-02T10:05:11.824Z,16701.00
2022-10-02T10:05:56.850Z,18289.00
2022-10-02T10:06:56.827Z,14402.00
2022-10-02T10:07:56.824Z,4636.00
2022-10-02T10:08:56.830Z,2571.00
2022-10-02T10:09:56.822Z,22278.00
2022-10-02T10:10:56.783Z,12443.00
2022-10-02T10:11:56.798Z,4239.00
2022-10-02T10:12:56.794Z,4410.00
2022-10-02T10:13:56.771Z,2826.00
2022-10-02T10:14:56.738Z,1870.00
2022-10-02T10:15:56.787Z,12915.00
2022-10-02T10:16:56.778Z,3191.00
2022-10-02T10:17:56.755Z,2298.00
2022-10-02T10:18:56.695Z,4323.00
2022-10-02T10:19:56.696Z,4968.00
2022-10-02T10:20:56.700Z,3898.00
2022-10-02T10:21:56.685Z,2428.00
2022-10-02T10:22:56.683Z,4696.00
2022-10-02T10:23:56.660Z,2490.00
2022-10-02T10:24:56.637Z,6941.00
2022-10-02T10:25:56.687Z,5491.00
2022-10-02T10:26:56.610Z,1791.00
2022-10-02T10:27:56.688Z,9867.00
2022-10-02T10:28:57.651Z,2909.00
2022-10-02T10:29:56.599Z,8035.00
2022-10-02T10:30:56.566Z,5042.00
2022-10-02T10:31:56.640Z,1787.00
2022-10-02T10:32:56.558Z,11934.00
2022-10-02T10:33:56.574Z,7562.00
2022-10-02T10:34:56.539Z,4068.00
2022-10-02T10:35:56.545Z,1798.00
2022-10-02T10:36:56.515Z,4928.00
2022-10-02T10:37:56.547Z,12396.00
2022-10-02T10:38:56.512Z,1981.00
2022-10-02T10:39:56.501Z,14814.00
2022-10-02T10:40:56.476Z,2614.00
2022-10-02T10:41:56.478Z,5032.00
2022-10-02T10:43:07.517Z,5215.00
2022-10-02T10:43:56.470Z,3519.00
2022-10-02T10:44:56.440Z,3114.00
2022-10-02T10:45:57.466Z,1910.00
2022-10-02T10:46:56.411Z,14024.00
2022-10-02T10:47:56.403Z,3045.00
2022-10-02T10:48:56.394Z,4082.00
2022-10-02T10:49:56.379Z,2167.00
2022-10-02T10:50:56.390Z,13372.00
2022-10-02T10:51:56.360Z,5131.00
2022-10-02T10:52:56.358Z,4663.00
2022-10-02T10:54:01.630Z,2464.00
2022-10-02T10:54:56.321Z,2662.00
2022-10-02T10:55:56.340Z,19002.00
2022-10-02T10:56:56.291Z,7047.00
2022-10-02T10:57:56.287Z,3300.00
2022-10-02T10:58:56.292Z,2304.00
2022-10-02T10:59:56.263Z,1931.00
2022-10-02T11:00:56.365Z,1837.00
2022-10-02T11:01:56.299Z,1854.00
2022-10-02T11:02:56.232Z,2940.00
2022-10-02T11:03:56.228Z,3399.00
2022-10-02T11:04:56.209Z,3403.00
2022-10-02T11:05:56.213Z,2837.00
2022-10-02T11:06:56.195Z,2908.00
2022-10-02T11:07:56.176Z,3601.00
2022-10-02T11:08:56.171Z,2571.00
2022-10-02T11:09:56.171Z,4160.00
2022-10-02T11:10:56.152Z,4352.00
2022-10-02T11:11:56.166Z,3513.00
2022-10-02T11:12:56.270Z,30904.00
2022-10-02T11:13:56.136Z,33019.00
2022-10-02T11:14:56.103Z,30468.00
2022-10-02T11:15:56.117Z,25928.00
2022-10-02T11:16:56.098Z,17433.00
2022-10-02T11:17:56.100Z,3279.00
2022-10-02T11:18:56.089Z,23752.00
2022-10-02T11:19:56.060Z,15939.00
2022-10-02T11:20:56.052Z,18493.00
2022-10-02T11:21:56.053Z,8779.00
2022-10-02T11:22:56.035Z,4604.00
2022-10-02T11:23:56.024Z,4843.00
2022-10-02T11:24:56.042Z,1860.00
2022-10-02T11:25:55.992Z,10389.00
2022-10-02T11:26:55.978Z,4124.00
2022-10-02T11:27:56.096Z,2490.00
2022-10-02T11:28:56.006Z,1846.00
2022-10-02T11:29:55.955Z,1655.00
2022-10-02T11:30:55.944Z,1244.00
2022-10-02T11:31:55.996Z,1278.00
2022-10-02T11:32:55.918Z,1346.00
2022-10-02T11:33:55.934Z,1330.00
2022-10-02T11:34:55.894Z,1087.00
2022-10-02T11:35:55.896Z,1185.00
2022-10-02T11:36:55.878Z,1098.00
2022-10-02T11:37:55.873Z,1205.00
2022-10-02T11:38:55.865Z,1403.00
2022-10-02T11:39:55.847Z,2266.00
2022-10-02T11:40:55.826Z,2568.00
2022-10-02T11:41:55.832Z,2600.00
2022-10-02T11:42:55.808Z,3203.00
2022-10-02T11:43:55.825Z,4007.00
2022-10-02T11:44:55.783Z,2637.00
2022-10-02T11:45:55.830Z,9800.00
2022-10-02T11:46:55.759Z,5296.00
2022-10-02T11:47:55.775Z,5801.00
2022-10-02T11:48:55.793Z,4983.00
2022-10-02T11:49:55.747Z,9836.00
2022-10-02T11:50:55.731Z,10439.00
2022-10-02T11:51:55.711Z,7996.00
2022-10-02T11:52:55.708Z,5559.00
2022-10-02T11:53:55.706Z,4230.00
2022-10-02T11:54:55.711Z,3259.00
2022-10-02T11:55:55.686Z,3083.00
2022-10-02T11:56:55.661Z,2515.00
2022-10-02T11:57:55.646Z,2018.00
2022-10-02T11:58:55.643Z,2605.00
2022-10-02T11:59:55.628Z,3914.00
2022-10-02T12:00:55.654Z,4992.00
2022-10-02T12:01:55.656Z,5520.00
2022-10-02T12:02:55.690Z,5630.00
2022-10-02T12:03:55.609Z,3569.00
2022-10-02T12:04:55.619Z,8760.00
2022-10-02T12:05:55.601Z,10081.00
2022-10-02T12:06:55.568Z,8483.00
2022-10-02T12:07:55.549Z,6319.00
2022-10-02T12:08:55.541Z,4841.00
2022-10-02T12:09:55.529Z,6097.00
2022-10-02T12:10:55.507Z,13103.00
2022-10-02T12:11:55.519Z,7363.00
2022-10-02T12:12:55.478Z,9722.00
2022-10-02T12:13:55.478Z,13179.00
2022-10-02T12:14:55.462Z,7540.00
2022-10-02T12:15:55.462Z,20044.00
2022-10-02T12:16:55.483Z,13863.00
2022-10-02T12:17:55.447Z,5883.00
2022-10-02T12:18:55.417Z,7931.00
2022-10-02T12:19:55.466Z,5800.00
2022-10-02T12:20:55.418Z,4915.00
2022-10-02T12:21:55.422Z,3517.00
2022-10-02T12:22:55.393Z,2521.00
2022-10-02T12:23:55.382Z,1849.00
2022-10-02T12:24:55.419Z,1555.00
2022-10-02T12:25:55.341Z,1426.00
2022-10-02T12:26:55.363Z,1526.00
2022-10-02T12:27:55.366Z,1080.00
2022-10-02T12:28:55.317Z,958.00
2022-10-02T12:29:55.303Z,917.00
2022-10-02T12:30:55.313Z,1327.00
2022-10-02T12:31:55.343Z,1948.00
2022-10-02T12:32:55.273Z,2287.00
2022-10-02T12:33:56.725Z,3058.00
2022-10-02T12:34:55.263Z,2655.00
2022-10-02T12:35:55.225Z,1904.00
2022-10-02T12:36:55.323Z,3005.00
2022-10-02T12:37:55.311Z,1651.00
2022-10-02T12:38:55.214Z,1858.00